sensor_id;sensor_type;location;lat;lon;timestamp;P1;durP1;ratioP1;P2;durP2;ratioP2
55172;SDS011;41061;52.822;6.860;2022-12-18T00:00:58;115.25;;;39.30;;
55172;SDS011;41061;52.822;6.860;2022-12-18T00:03:23;124.20;;;39.15;;
55172;SDS011;41061;52.822;6.860;2022-12-18T00:05:50;135.77;;;40.63;;
55172;SDS011;41061;52.822;6.860;2022-12-18T00:08:17;134.15;;;40.20;;
55172;SDS011;41061;52.822;6.860;2022-12-18T00:10:43;123.38;;;37.85;;
55172;SDS011;41061;52.822;6.860;2022-12-18T00:13:09;139.23;;;43.50;;
55172;SDS011;41061;52.822;6.860;2022-12-18T00:15:36;136.13;;;41.10;;
55172;SDS011;41061;52.822;6.860;2022-12-18T00:18:03;131.38;;;42.17;;
55172;SDS011;41061;52.822;6.860;2022-12-18T00:20:29;134.38;;;42.42;;
55172;SDS011;41061;52.822;6.860;2022-12-18T00:22:55;132.68;;;44.42;;
55172;SDS011;41061;52.822;6.860;2022-12-18T00:25:21;135.10;;;42.72;;
55172;SDS011;41061;52.822;6.860;2022-12-18T00:27:47;121.40;;;37.72;;
55172;SDS011;41061;52.822;6.860;2022-12-18T00:30:13;126.68;;;39.25;;
55172;SDS011;41061;52.822;6.860;2022-12-18T00:32:39;128.85;;;42.72;;
55172;SDS011;41061;52.822;6.860;2022-12-18T00:35:05;125.22;;;41.15;;
55172;SDS011;41061;52.822;6.860;2022-12-18T00:37:33;133.43;;;43.13;;
55172;SDS011;41061;52.822;6.860;2022-12-18T00:39:59;137.25;;;43.42;;
55172;SDS011;41061;52.822;6.860;2022-12-18T00:42:25;132.57;;;40.60;;
55172;SDS011;41061;52.822;6.860;2022-12-18T00:45:09;129.13;;;38.58;;
55172;SDS011;41061;52.822;6.860;2022-12-18T00:47:35;133.00;;;41.15;;
55172;SDS011;41061;52.822;6.860;2022-12-18T00:50:01;123.47;;;41.20;;
55172;SDS011;41061;52.822;6.860;2022-12-18T00:52:26;148.07;;;45.95;;
55172;SDS011;41061;52.822;6.860;2022-12-18T00:54:52;141.85;;;42.00;;
55172;SDS011;41061;52.822;6.860;2022-12-18T00:57:17;117.05;;;35.42;;
55172;SDS011;41061;52.822;6.860;2022-12-18T00:59:43;138.00;;;40.67;;
55172;SDS011;41061;52.822;6.860;2022-12-18T01:02:09;150.63;;;44.88;;
55172;SDS011;41061;52.822;6.860;2022-12-18T01:04:34;136.55;;;40.28;;
55172;SDS011;41061;52.822;6.860;2022-12-18T01:07:00;119.25;;;41.00;;
55172;SDS011;41061;52.822;6.860;2022-12-18T01:09:26;134.10;;;42.70;;
55172;SDS011;41061;52.822;6.860;2022-12-18T01:11:52;129.20;;;42.53;;
55172;SDS011;41061;52.822;6.860;2022-12-18T01:14:17;127.35;;;40.15;;
55172;SDS011;41061;52.822;6.860;2022-12-18T01:16:43;121.47;;;38.67;;
55172;SDS011;41061;52.822;6.860;2022-12-18T01:19:09;113.47;;;39.25;;
55172;SDS011;41061;52.822;6.860;2022-12-18T01:21:35;114.18;;;38.70;;
55172;SDS011;41061;52.822;6.860;2022-12-18T01:24:00;110.97;;;37.63;;
55172;SDS011;41061;52.822;6.860;2022-12-18T01:26:26;106.80;;;37.50;;
55172;SDS011;41061;52.822;6.860;2022-12-18T01:28:55;113.78;;;38.00;;
55172;SDS011;41061;52.822;6.860;2022-12-18T01:33:48;102.18;;;35.33;;
55172;SDS011;41061;52.822;6.860;2022-12-18T01:36:16;98.25;;;34.33;;
55172;SDS011;41061;52.822;6.860;2022-12-18T01:38:53;100.75;;;35.45;;
55172;SDS011;41061;52.822;6.860;2022-12-18T01:41:21;110.65;;;37.88;;
55172;SDS011;41061;52.822;6.860;2022-12-18T01:43:53;109.93;;;36.38;;
55172;SDS011;41061;52.822;6.860;2022-12-18T01:46:21;99.13;;;36.42;;
55172;SDS011;41061;52.822;6.860;2022-12-18T01:48:55;114.45;;;37.30;;
55172;SDS011;41061;52.822;6.860;2022-12-18T01:51:23;113.78;;;37.83;;
55172;SDS011;41061;52.822;6.860;2022-12-18T01:53:50;109.00;;;36.35;;
55172;SDS011;41061;52.822;6.860;2022-12-18T01:56:17;115.55;;;38.42;;
55172;SDS011;41061;52.822;6.860;2022-12-18T01:58:47;113.50;;;37.00;;
55172;SDS011;41061;52.822;6.860;2022-12-18T02:01:23;125.78;;;40.17;;
55172;SDS011;41061;52.822;6.860;2022-12-18T02:03:50;120.22;;;39.17;;
55172;SDS011;41061;52.822;6.860;2022-12-18T02:06:25;131.32;;;41.97;;
55172;SDS011;41061;52.822;6.860;2022-12-18T02:09:01;122.70;;;40.08;;
55172;SDS011;41061;52.822;6.860;2022-12-18T02:17:00;121.43;;;38.38;;
55172;SDS011;41061;52.822;6.860;2022-12-18T02:27:23;109.70;;;37.10;;
55172;SDS011;41061;52.822;6.860;2022-12-18T02:29:52;103.63;;;35.95;;
55172;SDS011;41061;52.822;6.860;2022-12-18T02:32:24;105.18;;;35.55;;
55172;SDS011;41061;52.822;6.860;2022-12-18T02:34:54;91.82;;;33.70;;
55172;SDS011;41061;52.822;6.860;2022-12-18T02:37:22;95.80;;;32.30;;
55172;SDS011;41061;52.822;6.860;2022-12-18T02:39:50;86.72;;;30.90;;
55172;SDS011;41061;52.822;6.860;2022-12-18T02:42:19;91.78;;;32.60;;
55172;SDS011;41061;52.822;6.860;2022-12-18T02:44:46;85.50;;;32.83;;
55172;SDS011;41061;52.822;6.860;2022-12-18T02:47:14;76.30;;;29.75;;
55172;SDS011;41061;52.822;6.860;2022-12-18T02:49:53;90.53;;;31.35;;
55172;SDS011;41061;52.822;6.860;2022-12-18T02:55:12;65.32;;;25.20;;
55172;SDS011;41061;52.822;6.860;2022-12-18T03:00:24;69.35;;;28.35;;
55172;SDS011;41061;52.822;6.860;2022-12-18T03:02:57;72.72;;;28.65;;
55172;SDS011;41061;52.822;6.860;2022-12-18T03:05:31;73.45;;;29.50;;
55172;SDS011;41061;52.822;6.860;2022-12-18T03:10:34;70.80;;;28.20;;
55172;SDS011;41061;52.822;6.860;2022-12-18T03:13:04;66.60;;;26.23;;
55172;SDS011;41061;52.822;6.860;2022-12-18T03:15:38;69.85;;;26.65;;
55172;SDS011;41061;52.822;6.860;2022-12-18T03:20:43;71.95;;;26.90;;
55172;SDS011;41061;52.822;6.860;2022-12-18T03:23:13;63.65;;;24.52;;
55172;SDS011;41061;52.822;6.860;2022-12-18T03:25:43;71.18;;;26.30;;
55172;SDS011;41061;52.822;6.860;2022-12-18T03:28:12;76.05;;;26.90;;
55172;SDS011;41061;52.822;6.860;2022-12-18T03:30:40;62.42;;;25.38;;
55172;SDS011;41061;52.822;6.860;2022-12-18T03:33:10;68.55;;;25.83;;
55172;SDS011;41061;52.822;6.860;2022-12-18T03:35:42;68.15;;;24.77;;
55172;SDS011;41061;52.822;6.860;2022-12-18T03:38:09;63.22;;;25.17;;
55172;SDS011;41061;52.822;6.860;2022-12-18T03:40:42;63.92;;;26.10;;
55172;SDS011;41061;52.822;6.860;2022-12-18T03:46:06;69.20;;;26.15;;
55172;SDS011;41061;52.822;6.860;2022-12-18T03:48:43;67.05;;;23.38;;
55172;SDS011;41061;52.822;6.860;2022-12-18T03:54:29;61.67;;;23.10;;
55172;SDS011;41061;52.822;6.860;2022-12-18T03:56:58;61.75;;;24.52;;
55172;SDS011;41061;52.822;6.860;2022-12-18T03:59:28;66.05;;;25.85;;
55172;SDS011;41061;52.822;6.860;2022-12-18T04:01:55;61.15;;;23.85;;
55172;SDS011;41061;52.822;6.860;2022-12-18T04:04:23;61.78;;;23.73;;
55172;SDS011;41061;52.822;6.860;2022-12-18T04:06:49;63.78;;;26.17;;
55172;SDS011;41061;52.822;6.860;2022-12-18T04:09:17;56.42;;;23.40;;
55172;SDS011;41061;52.822;6.860;2022-12-18T04:11:44;66.38;;;26.02;;
55172;SDS011;41061;52.822;6.860;2022-12-18T04:14:11;58.75;;;23.10;;
55172;SDS011;41061;52.822;6.860;2022-12-18T04:16:36;62.42;;;25.45;;
55172;SDS011;41061;52.822;6.860;2022-12-18T04:19:03;59.63;;;25.02;;
55172;SDS011;41061;52.822;6.860;2022-12-18T04:21:28;61.08;;;23.80;;
55172;SDS011;41061;52.822;6.860;2022-12-18T04:23:54;55.95;;;23.17;;
55172;SDS011;41061;52.822;6.860;2022-12-18T04:26:20;58.60;;;23.15;;
55172;SDS011;41061;52.822;6.860;2022-12-18T04:28:45;54.22;;;21.17;;
55172;SDS011;41061;52.822;6.860;2022-12-18T04:31:12;58.20;;;23.52;;
55172;SDS011;41061;52.822;6.860;2022-12-18T04:33:37;50.45;;;21.13;;
55172;SDS011;41061;52.822;6.860;2022-12-18T04:36:03;54.17;;;22.35;;
55172;SDS011;41061;52.822;6.860;2022-12-18T04:38:29;55.05;;;23.42;;
55172;SDS011;41061;52.822;6.860;2022-12-18T04:40:55;55.00;;;22.55;;
55172;SDS011;41061;52.822;6.860;2022-12-18T04:43:21;55.28;;;22.27;;
55172;SDS011;41061;52.822;6.860;2022-12-18T04:45:47;56.00;;;22.40;;
55172;SDS011;41061;52.822;6.860;2022-12-18T04:48:13;54.20;;;21.30;;
55172;SDS011;41061;52.822;6.860;2022-12-18T04:50:38;47.25;;;19.80;;
55172;SDS011;41061;52.822;6.860;2022-12-18T04:53:04;53.95;;;21.00;;
55172;SDS011;41061;52.822;6.860;2022-12-18T04:55:30;51.20;;;21.45;;
55172;SDS011;41061;52.822;6.860;2022-12-18T04:57:56;53.95;;;22.45;;
55172;SDS011;41061;52.822;6.860;2022-12-18T05:00:21;53.70;;;22.33;;
55172;SDS011;41061;52.822;6.860;2022-12-18T05:02:47;47.15;;;20.98;;
55172;SDS011;41061;52.822;6.860;2022-12-18T05:05:13;53.08;;;20.13;;
55172;SDS011;41061;52.822;6.860;2022-12-18T05:07:38;53.22;;;21.75;;
55172;SDS011;41061;52.822;6.860;2022-12-18T05:10:08;46.78;;;21.02;;
55172;SDS011;41061;52.822;6.860;2022-12-18T05:12:34;50.42;;;20.77;;
55172;SDS011;41061;52.822;6.860;2022-12-18T05:15:20;51.70;;;21.13;;
55172;SDS011;41061;52.822;6.860;2022-12-18T05:17:45;44.67;;;20.52;;
55172;SDS011;41061;52.822;6.860;2022-12-18T05:20:11;46.30;;;20.88;;
55172;SDS011;41061;52.822;6.860;2022-12-18T05:22:36;50.78;;;20.98;;
55172;SDS011;41061;52.822;6.860;2022-12-18T05:25:02;49.85;;;20.55;;
55172;SDS011;41061;52.822;6.860;2022-12-18T05:27:28;53.50;;;20.67;;
55172;SDS011;41061;52.822;6.860;2022-12-18T05:29:53;47.72;;;20.55;;
55172;SDS011;41061;52.822;6.860;2022-12-18T05:32:19;47.63;;;21.55;;
55172;SDS011;41061;52.822;6.860;2022-12-18T05:34:45;41.00;;;18.40;;
55172;SDS011;41061;52.822;6.860;2022-12-18T05:37:10;42.22;;;19.02;;
55172;SDS011;41061;52.822;6.860;2022-12-18T05:39:36;45.17;;;19.17;;
55172;SDS011;41061;52.822;6.860;2022-12-18T05:42:02;46.13;;;20.65;;
55172;SDS011;41061;52.822;6.860;2022-12-18T05:44:27;41.47;;;19.10;;
55172;SDS011;41061;52.822;6.860;2022-12-18T05:46:53;44.40;;;19.70;;
55172;SDS011;41061;52.822;6.860;2022-12-18T05:49:19;40.00;;;18.65;;
55172;SDS011;41061;52.822;6.860;2022-12-18T05:51:44;45.17;;;18.77;;
55172;SDS011;41061;52.822;6.860;2022-12-18T05:54:11;45.88;;;19.15;;
55172;SDS011;41061;52.822;6.860;2022-12-18T05:56:36;43.03;;;19.02;;
55172;SDS011;41061;52.822;6.860;2022-12-18T05:59:02;39.75;;;18.90;;
55172;SDS011;41061;52.822;6.860;2022-12-18T06:01:27;42.45;;;19.52;;
55172;SDS011;41061;52.822;6.860;2022-12-18T06:03:54;40.97;;;19.90;;
55172;SDS011;41061;52.822;6.860;2022-12-18T06:06:24;47.80;;;20.50;;
55172;SDS011;41061;52.822;6.860;2022-12-18T06:08:51;43.50;;;19.92;;
55172;SDS011;41061;52.822;6.860;2022-12-18T06:11:19;45.42;;;18.42;;
55172;SDS011;41061;52.822;6.860;2022-12-18T06:13:51;41.28;;;19.88;;
55172;SDS011;41061;52.822;6.860;2022-12-18T06:16:20;45.25;;;20.70;;
55172;SDS011;41061;52.822;6.860;2022-12-18T06:18:47;47.28;;;19.65;;
55172;SDS011;41061;52.822;6.860;2022-12-18T06:21:12;41.03;;;18.75;;
55172;SDS011;41061;52.822;6.860;2022-12-18T06:23:38;42.40;;;19.50;;
55172;SDS011;41061;52.822;6.860;2022-12-18T06:26:08;42.97;;;20.17;;
55172;SDS011;41061;52.822;6.860;2022-12-18T06:28:35;42.45;;;20.98;;
55172;SDS011;41061;52.822;6.860;2022-12-18T06:31:02;41.70;;;19.00;;
55172;SDS011;41061;52.822;6.860;2022-12-18T06:33:29;40.83;;;17.25;;
55172;SDS011;41061;52.822;6.860;2022-12-18T06:36:03;43.33;;;18.27;;
55172;SDS011;41061;52.822;6.860;2022-12-18T06:38:31;43.83;;;18.83;;
55172;SDS011;41061;52.822;6.860;2022-12-18T06:40:57;39.78;;;18.92;;
55172;SDS011;41061;52.822;6.860;2022-12-18T06:43:23;38.40;;;16.98;;
55172;SDS011;41061;52.822;6.860;2022-12-18T06:45:49;40.22;;;18.13;;
55172;SDS011;41061;52.822;6.860;2022-12-18T06:48:20;36.70;;;17.45;;
55172;SDS011;41061;52.822;6.860;2022-12-18T06:50:47;38.20;;;17.33;;
55172;SDS011;41061;52.822;6.860;2022-12-18T06:53:13;33.63;;;17.05;;
55172;SDS011;41061;52.822;6.860;2022-12-18T06:55:39;41.13;;;18.33;;
55172;SDS011;41061;52.822;6.860;2022-12-18T06:58:04;39.88;;;19.05;;
55172;SDS011;41061;52.822;6.860;2022-12-18T07:00:30;35.05;;;16.30;;
55172;SDS011;41061;52.822;6.860;2022-12-18T07:02:55;35.88;;;17.40;;
55172;SDS011;41061;52.822;6.860;2022-12-18T07:05:22;38.28;;;16.95;;
55172;SDS011;41061;52.822;6.860;2022-12-18T07:07:47;35.17;;;16.42;;
55172;SDS011;41061;52.822;6.860;2022-12-18T07:10:13;37.53;;;17.85;;
55172;SDS011;41061;52.822;6.860;2022-12-18T07:12:39;34.10;;;16.75;;
55172;SDS011;41061;52.822;6.860;2022-12-18T07:15:05;35.08;;;17.55;;
55172;SDS011;41061;52.822;6.860;2022-12-18T07:17:31;32.60;;;16.13;;
55172;SDS011;41061;52.822;6.860;2022-12-18T07:19:57;35.25;;;16.35;;
55172;SDS011;41061;52.822;6.860;2022-12-18T07:22:24;34.00;;;16.77;;
55172;SDS011;41061;52.822;6.860;2022-12-18T07:24:50;36.05;;;16.55;;
55172;SDS011;41061;52.822;6.860;2022-12-18T07:27:16;35.30;;;15.70;;
55172;SDS011;41061;52.822;6.860;2022-12-18T07:29:42;33.88;;;15.35;;
55172;SDS011;41061;52.822;6.860;2022-12-18T07:32:08;31.15;;;14.68;;
55172;SDS011;41061;52.822;6.860;2022-12-18T07:34:33;32.85;;;15.82;;
55172;SDS011;41061;52.822;6.860;2022-12-18T07:36:59;33.05;;;16.50;;
55172;SDS011;41061;52.822;6.860;2022-12-18T07:39:25;37.85;;;17.70;;
55172;SDS011;41061;52.822;6.860;2022-12-18T07:41:51;29.90;;;15.55;;
55172;SDS011;41061;52.822;6.860;2022-12-18T07:44:36;30.27;;;14.57;;
55172;SDS011;41061;52.822;6.860;2022-12-18T07:47:02;24.85;;;13.18;;
55172;SDS011;41061;52.822;6.860;2022-12-18T07:49:28;27.10;;;14.13;;
55172;SDS011;41061;52.822;6.860;2022-12-18T07:51:54;29.23;;;14.18;;
55172;SDS011;41061;52.822;6.860;2022-12-18T07:54:21;27.27;;;13.88;;
55172;SDS011;41061;52.822;6.860;2022-12-18T07:56:48;30.23;;;14.15;;
55172;SDS011;41061;52.822;6.860;2022-12-18T07:59:13;32.30;;;14.07;;
55172;SDS011;41061;52.822;6.860;2022-12-18T08:01:39;24.35;;;13.10;;
55172;SDS011;41061;52.822;6.860;2022-12-18T08:04:05;24.33;;;12.75;;
55172;SDS011;41061;52.822;6.860;2022-12-18T08:06:31;25.42;;;11.88;;
55172;SDS011;41061;52.822;6.860;2022-12-18T08:08:57;27.35;;;12.68;;
55172;SDS011;41061;52.822;6.860;2022-12-18T08:11:23;24.27;;;11.52;;
55172;SDS011;41061;52.822;6.860;2022-12-18T08:13:50;23.83;;;11.57;;
55172;SDS011;41061;52.822;6.860;2022-12-18T08:16:17;25.13;;;12.07;;
55172;SDS011;41061;52.822;6.860;2022-12-18T08:18:43;24.45;;;11.93;;
55172;SDS011;41061;52.822;6.860;2022-12-18T08:21:09;21.00;;;11.30;;
55172;SDS011;41061;52.822;6.860;2022-12-18T08:23:43;17.55;;;8.98;;
55172;SDS011;41061;52.822;6.860;2022-12-18T08:26:10;25.25;;;11.60;;
55172;SDS011;41061;52.822;6.860;2022-12-18T08:28:36;24.60;;;10.55;;
55172;SDS011;41061;52.822;6.860;2022-12-18T08:31:02;22.90;;;11.32;;
55172;SDS011;41061;52.822;6.860;2022-12-18T08:33:28;22.80;;;11.45;;
55172;SDS011;41061;52.822;6.860;2022-12-18T08:35:54;19.23;;;10.38;;
55172;SDS011;41061;52.822;6.860;2022-12-18T08:38:20;18.88;;;9.73;;
55172;SDS011;41061;52.822;6.860;2022-12-18T08:40:46;16.25;;;9.23;;
55172;SDS011;41061;52.822;6.860;2022-12-18T08:43:12;16.85;;;8.27;;
55172;SDS011;41061;52.822;6.860;2022-12-18T08:45:56;19.60;;;9.32;;
55172;SDS011;41061;52.822;6.860;2022-12-18T08:48:22;16.58;;;8.63;;
55172;SDS011;41061;52.822;6.860;2022-12-18T08:50:57;16.05;;;7.50;;
55172;SDS011;41061;52.822;6.860;2022-12-18T08:53:24;14.52;;;6.97;;
55172;SDS011;41061;52.822;6.860;2022-12-18T08:55:51;15.60;;;7.57;;
55172;SDS011;41061;52.822;6.860;2022-12-18T08:58:17;16.58;;;7.40;;
55172;SDS011;41061;52.822;6.860;2022-12-18T09:00:43;15.13;;;7.13;;
55172;SDS011;41061;52.822;6.860;2022-12-18T09:03:15;14.23;;;8.07;;
55172;SDS011;41061;52.822;6.860;2022-12-18T09:05:42;13.88;;;8.25;;
55172;SDS011;41061;52.822;6.860;2022-12-18T09:08:10;13.02;;;7.13;;
55172;SDS011;41061;52.822;6.860;2022-12-18T09:10:45;11.18;;;6.50;;
55172;SDS011;41061;52.822;6.860;2022-12-18T09:13:13;14.18;;;6.90;;
55172;SDS011;41061;52.822;6.860;2022-12-18T09:15:43;12.93;;;6.68;;
55172;SDS011;41061;52.822;6.860;2022-12-18T09:18:11;13.65;;;7.20;;
55172;SDS011;41061;52.822;6.860;2022-12-18T09:20:38;13.23;;;7.30;;
55172;SDS011;41061;52.822;6.860;2022-12-18T09:23:04;11.65;;;7.07;;
55172;SDS011;41061;52.822;6.860;2022-12-18T09:25:31;10.48;;;5.97;;
55172;SDS011;41061;52.822;6.860;2022-12-18T09:28:31;11.77;;;6.43;;
55172;SDS011;41061;52.822;6.860;2022-12-18T09:30:50;10.05;;;6.35;;
55172;SDS011;41061;52.822;6.860;2022-12-18T09:33:16;9.75;;;5.68;;
55172;SDS011;41061;52.822;6.860;2022-12-18T09:35:42;10.93;;;5.28;;
55172;SDS011;41061;52.822;6.860;2022-12-18T09:38:17;11.40;;;5.70;;
55172;SDS011;41061;52.822;6.860;2022-12-18T09:40:46;10.65;;;5.68;;
55172;SDS011;41061;52.822;6.860;2022-12-18T09:43:18;8.60;;;5.13;;
55172;SDS011;41061;52.822;6.860;2022-12-18T09:45:53;12.25;;;5.28;;
55172;SDS011;41061;52.822;6.860;2022-12-18T09:48:25;13.75;;;5.30;;
55172;SDS011;41061;52.822;6.860;2022-12-18T09:51:02;8.63;;;4.78;;
55172;SDS011;41061;52.822;6.860;2022-12-18T09:53:35;8.38;;;4.93;;
55172;SDS011;41061;52.822;6.860;2022-12-18T09:56:03;9.90;;;5.40;;
55172;SDS011;41061;52.822;6.860;2022-12-18T09:58:39;8.73;;;4.80;;
55172;SDS011;41061;52.822;6.860;2022-12-18T10:01:12;10.63;;;5.32;;
55172;SDS011;41061;52.822;6.860;2022-12-18T10:03:42;8.75;;;5.68;;
55172;SDS011;41061;52.822;6.860;2022-12-18T10:06:21;9.65;;;5.68;;
55172;SDS011;41061;52.822;6.860;2022-12-18T10:09:03;12.20;;;5.80;;
55172;SDS011;41061;52.822;6.860;2022-12-18T10:14:18;11.80;;;6.05;;
55172;SDS011;41061;52.822;6.860;2022-12-18T10:17:07;9.45;;;5.45;;
55172;SDS011;41061;52.822;6.860;2022-12-18T10:19:53;11.48;;;5.85;;
55172;SDS011;41061;52.822;6.860;2022-12-18T10:28:14;9.63;;;5.28;;
55172;SDS011;41061;52.822;6.860;2022-12-18T10:30:42;12.23;;;5.53;;
55172;SDS011;41061;52.822;6.860;2022-12-18T10:33:16;9.85;;;5.78;;
55172;SDS011;41061;52.822;6.860;2022-12-18T10:35:43;11.73;;;5.68;;
55172;SDS011;41061;52.822;6.860;2022-12-18T10:43:37;10.02;;;5.47;;
55172;SDS011;41061;52.822;6.860;2022-12-18T10:51:07;14.20;;;6.13;;
55172;SDS011;41061;52.822;6.860;2022-12-18T10:53:34;13.20;;;6.32;;
55172;SDS011;41061;52.822;6.860;2022-12-18T10:56:02;11.90;;;6.00;;
55172;SDS011;41061;52.822;6.860;2022-12-18T10:58:32;11.45;;;6.00;;
55172;SDS011;41061;52.822;6.860;2022-12-18T11:01:15;11.10;;;6.05;;
55172;SDS011;41061;52.822;6.860;2022-12-18T11:06:13;8.45;;;5.50;;
55172;SDS011;41061;52.822;6.860;2022-12-18T11:08:41;11.13;;;5.88;;
55172;SDS011;41061;52.822;6.860;2022-12-18T11:11:19;11.65;;;5.38;;
55172;SDS011;41061;52.822;6.860;2022-12-18T11:14:05;9.07;;;5.43;;
55172;SDS011;41061;52.822;6.860;2022-12-18T11:16:45;9.07;;;4.95;;
55172;SDS011;41061;52.822;6.860;2022-12-18T11:21:47;9.27;;;5.55;;
55172;SDS011;41061;52.822;6.860;2022-12-18T11:24:32;10.25;;;5.57;;
55172;SDS011;41061;52.822;6.860;2022-12-18T11:27:00;9.55;;;5.03;;
55172;SDS011;41061;52.822;6.860;2022-12-18T11:29:38;9.65;;;5.55;;
55172;SDS011;41061;52.822;6.860;2022-12-18T11:34:53;10.52;;;5.78;;
55172;SDS011;41061;52.822;6.860;2022-12-18T11:37:26;9.20;;;5.40;;
55172;SDS011;41061;52.822;6.860;2022-12-18T11:40:06;9.88;;;5.20;;
55172;SDS011;41061;52.822;6.860;2022-12-18T11:42:44;8.05;;;4.95;;
55172;SDS011;41061;52.822;6.860;2022-12-18T11:45:28;12.85;;;5.13;;
55172;SDS011;41061;52.822;6.860;2022-12-18T11:48:16;10.73;;;5.68;;
55172;SDS011;41061;52.822;6.860;2022-12-18T11:53:17;11.07;;;4.97;;
55172;SDS011;41061;52.822;6.860;2022-12-18T12:01:20;10.10;;;5.85;;
55172;SDS011;41061;52.822;6.860;2022-12-18T12:04:05;10.50;;;5.93;;
55172;SDS011;41061;52.822;6.860;2022-12-18T12:17:24;8.98;;;5.25;;
55172;SDS011;41061;52.822;6.860;2022-12-18T12:29:13;9.18;;;5.57;;
55172;SDS011;41061;52.822;6.860;2022-12-18T12:31:47;9.68;;;5.22;;
55172;SDS011;41061;52.822;6.860;2022-12-18T12:39:36;7.93;;;4.90;;
55172;SDS011;41061;52.822;6.860;2022-12-18T12:42:05;11.43;;;5.80;;
55172;SDS011;41061;52.822;6.860;2022-12-18T12:45:03;12.10;;;5.68;;
55172;SDS011;41061;52.822;6.860;2022-12-18T12:47:33;10.65;;;5.88;;
55172;SDS011;41061;52.822;6.860;2022-12-18T12:50:03;10.05;;;6.03;;
55172;SDS011;41061;52.822;6.860;2022-12-18T12:52:40;10.27;;;5.75;;
55172;SDS011;41061;52.822;6.860;2022-12-18T12:55:21;12.57;;;5.82;;
55172;SDS011;41061;52.822;6.860;2022-12-18T12:57:58;10.25;;;5.80;;
55172;SDS011;41061;52.822;6.860;2022-12-18T13:00:56;9.15;;;5.50;;
55172;SDS011;41061;52.822;6.860;2022-12-18T13:08:59;12.95;;;5.50;;
55172;SDS011;41061;52.822;6.860;2022-12-18T13:11:28;10.82;;;5.75;;
55172;SDS011;41061;52.822;6.860;2022-12-18T13:14:26;11.88;;;5.65;;
55172;SDS011;41061;52.822;6.860;2022-12-18T13:17:09;9.65;;;5.90;;
55172;SDS011;41061;52.822;6.860;2022-12-18T13:19:41;10.15;;;5.18;;
55172;SDS011;41061;52.822;6.860;2022-12-18T13:22:30;10.38;;;6.30;;
55172;SDS011;41061;52.822;6.860;2022-12-18T13:24:56;9.73;;;5.50;;
55172;SDS011;41061;52.822;6.860;2022-12-18T13:35:39;10.98;;;5.60;;
55172;SDS011;41061;52.822;6.860;2022-12-18T13:46:03;10.18;;;5.88;;
55172;SDS011;41061;52.822;6.860;2022-12-18T13:48:30;11.30;;;5.78;;
55172;SDS011;41061;52.822;6.860;2022-12-18T13:55:59;10.15;;;5.80;;
55172;SDS011;41061;52.822;6.860;2022-12-18T13:58:26;10.90;;;6.53;;
55172;SDS011;41061;52.822;6.860;2022-12-18T14:00:52;11.00;;;6.10;;
55172;SDS011;41061;52.822;6.860;2022-12-18T14:03:33;10.02;;;6.68;;
55172;SDS011;41061;52.822;6.860;2022-12-18T14:06:00;11.82;;;6.53;;
55172;SDS011;41061;52.822;6.860;2022-12-18T14:08:34;11.07;;;6.30;;
55172;SDS011;41061;52.822;6.860;2022-12-18T14:11:03;13.38;;;7.22;;
55172;SDS011;41061;52.822;6.860;2022-12-18T14:13:31;14.18;;;6.68;;
55172;SDS011;41061;52.822;6.860;2022-12-18T14:16:06;9.93;;;6.05;;
55172;SDS011;41061;52.822;6.860;2022-12-18T14:18:46;12.35;;;6.75;;
55172;SDS011;41061;52.822;6.860;2022-12-18T14:23:48;13.15;;;6.30;;
55172;SDS011;41061;52.822;6.860;2022-12-18T14:26:28;11.00;;;6.80;;
55172;SDS011;41061;52.822;6.860;2022-12-18T14:28:59;11.80;;;6.65;;
55172;SDS011;41061;52.822;6.860;2022-12-18T14:31:42;10.95;;;6.80;;
55172;SDS011;41061;52.822;6.860;2022-12-18T14:34:14;11.65;;;7.03;;
55172;SDS011;41061;52.822;6.860;2022-12-18T14:36:53;13.00;;;7.15;;
55172;SDS011;41061;52.822;6.860;2022-12-18T14:39:21;11.10;;;6.35;;
55172;SDS011;41061;52.822;6.860;2022-12-18T14:41:48;15.45;;;7.80;;
55172;SDS011;41061;52.822;6.860;2022-12-18T14:44:14;13.35;;;7.55;;
55172;SDS011;41061;52.822;6.860;2022-12-18T14:46:44;12.70;;;7.05;;
55172;SDS011;41061;52.822;6.860;2022-12-18T14:49:24;13.18;;;7.50;;
55172;SDS011;41061;52.822;6.860;2022-12-18T14:51:55;14.15;;;7.85;;
55172;SDS011;41061;52.822;6.860;2022-12-18T14:54:25;13.45;;;7.45;;
55172;SDS011;41061;52.822;6.860;2022-12-18T14:56:57;13.73;;;7.72;;
55172;SDS011;41061;52.822;6.860;2022-12-18T14:59:27;14.93;;;7.63;;
55172;SDS011;41061;52.822;6.860;2022-12-18T15:04:45;14.48;;;8.20;;
55172;SDS011;41061;52.822;6.860;2022-12-18T15:09:40;13.35;;;7.60;;
55172;SDS011;41061;52.822;6.860;2022-12-18T15:12:33;15.02;;;9.07;;
55172;SDS011;41061;52.822;6.860;2022-12-18T15:14:58;14.30;;;7.90;;
55172;SDS011;41061;52.822;6.860;2022-12-18T15:17:24;15.20;;;7.85;;
55172;SDS011;41061;52.822;6.860;2022-12-18T15:19:51;14.93;;;8.15;;
55172;SDS011;41061;52.822;6.860;2022-12-18T15:22:27;14.82;;;8.20;;
55172;SDS011;41061;52.822;6.860;2022-12-18T15:24:55;14.25;;;8.32;;
55172;SDS011;41061;52.822;6.860;2022-12-18T15:27:27;14.88;;;7.95;;
55172;SDS011;41061;52.822;6.860;2022-12-18T15:30:00;15.45;;;9.00;;
55172;SDS011;41061;52.822;6.860;2022-12-18T15:32:38;15.13;;;8.38;;
55172;SDS011;41061;52.822;6.860;2022-12-18T15:37:36;14.15;;;7.75;;
55172;SDS011;41061;52.822;6.860;2022-12-18T15:40:05;15.30;;;8.45;;
55172;SDS011;41061;52.822;6.860;2022-12-18T15:42:31;13.13;;;7.32;;
55172;SDS011;41061;52.822;6.860;2022-12-18T15:45:16;17.00;;;8.07;;
55172;SDS011;41061;52.822;6.860;2022-12-18T15:47:42;16.10;;;8.45;;
55172;SDS011;41061;52.822;6.860;2022-12-18T15:50:08;14.25;;;8.25;;
55172;SDS011;41061;52.822;6.860;2022-12-18T15:52:41;13.98;;;7.75;;
55172;SDS011;41061;52.822;6.860;2022-12-18T15:55:12;15.20;;;8.40;;
55172;SDS011;41061;52.822;6.860;2022-12-18T15:57:57;14.23;;;8.15;;
55172;SDS011;41061;52.822;6.860;2022-12-18T16:00:23;15.77;;;8.35;;
55172;SDS011;41061;52.822;6.860;2022-12-18T16:02:49;15.10;;;8.10;;
55172;SDS011;41061;52.822;6.860;2022-12-18T16:05:16;13.10;;;7.63;;
55172;SDS011;41061;52.822;6.860;2022-12-18T16:07:43;15.07;;;8.32;;
55172;SDS011;41061;52.822;6.860;2022-12-18T16:10:09;14.80;;;7.85;;
55172;SDS011;41061;52.822;6.860;2022-12-18T16:12:35;14.55;;;8.65;;
55172;SDS011;41061;52.822;6.860;2022-12-18T16:15:01;14.57;;;8.07;;
55172;SDS011;41061;52.822;6.860;2022-12-18T16:17:28;15.35;;;7.97;;
55172;SDS011;41061;52.822;6.860;2022-12-18T16:19:54;19.92;;;9.07;;
55172;SDS011;41061;52.822;6.860;2022-12-18T16:22:20;16.02;;;7.88;;
55172;SDS011;41061;52.822;6.860;2022-12-18T16:24:49;16.42;;;7.65;;
55172;SDS011;41061;52.822;6.860;2022-12-18T16:27:16;13.55;;;8.25;;
55172;SDS011;41061;52.822;6.860;2022-12-18T16:29:42;15.60;;;7.47;;
55172;SDS011;41061;52.822;6.860;2022-12-18T16:32:08;13.95;;;7.72;;
55172;SDS011;41061;52.822;6.860;2022-12-18T16:34:38;15.15;;;7.55;;
55172;SDS011;41061;52.822;6.860;2022-12-18T16:37:05;12.45;;;7.50;;
55172;SDS011;41061;52.822;6.860;2022-12-18T16:39:33;16.00;;;8.52;;
55172;SDS011;41061;52.822;6.860;2022-12-18T16:42:06;13.65;;;7.72;;
55172;SDS011;41061;52.822;6.860;2022-12-18T16:44:39;13.85;;;7.22;;
55172;SDS011;41061;52.822;6.860;2022-12-18T16:47:05;14.95;;;7.78;;
55172;SDS011;41061;52.822;6.860;2022-12-18T16:49:31;20.20;;;9.25;;